createdAt,value
2022-12-11T00:03:01.077Z,99275.16
2022-12-11T00:08:02.865Z,99262.28
2022-12-11T00:13:04.730Z,99262.25
2022-12-11T00:18:06.556Z,99268.31
2022-12-11T00:23:08.282Z,99270.84
2022-12-11T00:28:10.614Z,99277.69
2022-12-11T00:33:14.011Z,99281.16
2022-12-11T00:38:17.915Z,99270.03
2022-12-11T00:43:19.583Z,99275.16
2022-12-11T00:48:21.249Z,99273.38
2022-12-11T00:53:22.970Z,99276.88
2022-12-11T00:58:24.904Z,99281.09
2022-12-11T01:03:26.642Z,99275.09
2022-12-11T01:08:28.389Z,99277.59
2022-12-11T01:13:30.108Z,99273.28
2022-12-11T01:18:31.819Z,99287.84
2022-12-11T01:23:33.832Z,99279.22
2022-12-11T01:28:36.044Z,99287.78
2022-12-11T01:33:38.059Z,99290.34
2022-12-11T01:38:39.931Z,99292.03
2022-12-11T01:44:03.828Z,99286.81
2022-12-11T01:49:11.181Z,99290.25
2022-12-11T01:54:14.853Z,99286.94
2022-12-11T01:59:21.016Z,99286.09
2022-12-11T02:04:23.562Z,99282.63
2022-12-11T02:09:28.164Z,99283.44
2022-12-11T02:15:11.893Z,99283.53
2022-12-11T02:20:23.330Z,99273.16
2022-12-11T02:25:32.972Z,99274.91
2022-12-11T02:30:39.282Z,99276.56
2022-12-11T02:35:44.162Z,99266.34
2022-12-11T02:40:50.134Z,99266.41
2022-12-11T02:45:53.766Z,99267.00
2022-12-11T02:50:58.099Z,99258.47
2022-12-11T02:56:14.440Z,99277.28
2022-12-11T03:01:16.572Z,99270.41
2022-12-11T03:06:21.910Z,99274.91
2022-12-11T03:11:23.582Z,99277.47
2022-12-11T03:16:35.113Z,99270.59
2022-12-11T03:21:45.652Z,99273.13
2022-12-11T03:26:56.700Z,99281.72
2022-12-11T03:32:08.322Z,99278.22
2022-12-11T03:37:13.927Z,99285.09
2022-12-11T03:42:18.841Z,99282.53
2022-12-11T03:47:24.358Z,99282.38
2022-12-11T03:52:28.241Z,99287.53
2022-12-11T03:57:32.960Z,99285.91
2022-12-11T04:02:34.605Z,99278.16
2022-12-11T04:07:36.353Z,99288.31
2022-12-11T04:12:37.923Z,99279.66
2022-12-11T04:17:57.818Z,99278.84
2022-12-11T04:23:18.002Z,99284.03
2022-12-11T04:28:19.647Z,99297.78
2022-12-11T04:33:21.315Z,99289.16
2022-12-11T04:38:22.946Z,99287.34
2022-12-11T04:43:24.976Z,99270.09
2022-12-11T04:48:26.590Z,99266.78
2022-12-11T04:53:28.443Z,99273.66
2022-12-11T04:58:30.326Z,99277.97
2022-12-11T05:03:32.021Z,99263.44
2022-12-11T05:08:35.136Z,99260.00
2022-12-11T05:13:37.564Z,99260.06
2022-12-11T05:18:39.409Z,99262.63
2022-12-11T05:23:42.194Z,99253.88
2022-12-11T05:28:44.873Z,99252.09
2022-12-11T05:33:48.480Z,99254.66
2022-12-11T05:38:51.091Z,99250.16
2022-12-11T05:43:53.690Z,99244.84
2022-12-11T05:49:00.589Z,99241.44
2022-12-11T05:54:03.047Z,99237.19
2022-12-11T05:59:06.092Z,99247.50
2022-12-11T06:04:09.193Z,99250.94
2022-12-11T06:09:15.868Z,99244.88
2022-12-11T06:14:17.490Z,99257.41
2022-12-11T06:19:19.522Z,99247.28
2022-12-11T06:24:21.185Z,99255.22
2022-12-11T06:29:22.891Z,99257.66
2022-12-11T06:34:24.645Z,99245.69
2022-12-11T06:39:26.545Z,99258.38
2022-12-11T06:44:28.325Z,99262.00
2022-12-11T06:49:30.623Z,99255.91
2022-12-11T06:54:32.260Z,99262.00
2022-12-11T06:59:33.890Z,99266.06
2022-12-11T07:04:35.746Z,99272.88
2022-12-11T07:09:41.103Z,99279.72
2022-12-11T07:14:42.845Z,99282.41
2022-12-11T07:19:44.644Z,99279.72
2022-12-11T07:24:46.334Z,99285.72
2022-12-11T07:29:48.051Z,99282.28
2022-12-11T07:34:51.990Z,99283.25
2022-12-11T07:39:54.950Z,99290.00
2022-12-11T07:44:56.630Z,99289.28
2022-12-11T07:49:59.469Z,99298.50
2022-12-11T07:55:01.455Z,99296.97
2022-12-11T08:00:05.212Z,99303.63
2022-12-11T08:05:14.203Z,99297.75
2022-12-11T08:10:16.037Z,99303.09
2022-12-11T08:15:17.810Z,99301.25
2022-12-11T08:20:19.485Z,99302.72
2022-12-11T08:25:21.237Z,99298.78
2022-12-11T08:30:23.407Z,99291.66
2022-12-11T08:35:26.003Z,99295.94
2022-12-11T08:40:27.762Z,99288.97
2022-12-11T08:45:29.602Z,99279.78
2022-12-11T08:50:31.484Z,99282.09
2022-12-11T08:55:33.952Z,99288.13
2022-12-11T09:00:36.162Z,99284.84
2022-12-11T09:05:38.424Z,99287.53
2022-12-11T09:10:40.105Z,99285.16
2022-12-11T09:15:41.885Z,99297.94
2022-12-11T09:20:43.630Z,99296.03
2022-12-11T09:25:45.479Z,99295.19
2022-12-11T09:30:47.319Z,99290.81
2022-12-11T09:36:02.887Z,99278.34
2022-12-11T09:41:22.842Z,99277.44
2022-12-11T09:46:28.478Z,99282.88
2022-12-11T09:51:51.193Z,99282.06
2022-12-11T09:57:07.338Z,99277.41
2022-12-11T10:02:35.536Z,99279.06
2022-12-11T10:07:56.705Z,99276.59
2022-12-11T10:13:26.100Z,99271.59
2022-12-11T10:18:29.669Z,99260.38
2022-12-11T10:23:38.567Z,99256.31
2022-12-11T10:28:40.382Z,99243.56
2022-12-11T10:33:50.038Z,99239.38
2022-12-11T10:38:51.789Z,99248.97
2022-12-11T10:43:53.908Z,99245.38
2022-12-11T10:48:58.708Z,99246.31
2022-12-11T10:54:07.519Z,99236.19
2022-12-11T10:59:35.290Z,99241.41
2022-12-11T11:04:39.157Z,99232.97
2022-12-11T11:09:41.505Z,99226.88
2022-12-11T11:14:43.216Z,99220.63
2022-12-11T11:19:48.515Z,99214.72
2022-12-11T11:24:58.378Z,99205.38
2022-12-11T11:30:17.535Z,99202.63
2022-12-11T11:35:22.968Z,99206.75
2022-12-11T11:40:27.177Z,99202.69
2022-12-11T11:45:56.583Z,99199.22
2022-12-11T11:50:58.711Z,99194.09
2022-12-11T11:56:14.379Z,99182.19
2022-12-11T12:01:19.008Z,99167.00
2022-12-11T12:06:36.017Z,99174.69
2022-12-11T12:11:46.083Z,99181.56
2022-12-11T12:16:57.119Z,99173.81
2022-12-11T12:22:26.454Z,99174.66
2022-12-11T12:27:52.079Z,99168.50
2022-12-11T12:33:07.876Z,99174.53
2022-12-11T12:38:27.489Z,99169.34
2022-12-11T12:43:35.184Z,99160.69
2022-12-11T12:48:36.983Z,99162.28
2022-12-11T12:53:39.581Z,99161.25
2022-12-11T12:58:43.908Z,99150.16
2022-12-11T13:03:59.681Z,99148.50
2022-12-11T13:09:18.590Z,99145.06
2022-12-11T13:14:23.413Z,99148.50
2022-12-11T13:19:27.555Z,99142.41
2022-12-11T13:24:31.950Z,99136.22
2022-12-11T13:29:42.174Z,99140.50
2022-12-11T13:34:58.867Z,99147.47
2022-12-11T13:40:08.344Z,99145.06
2022-12-11T13:45:21.724Z,99146.81
2022-12-11T13:50:30.686Z,99155.25
2022-12-11T13:55:34.776Z,99169.81
2022-12-11T14:00:36.521Z,99163.06
2022-12-11T14:05:38.301Z,99157.00
2022-12-11T14:10:40.303Z,99157.13
2022-12-11T14:15:45.356Z,99151.78
2022-12-11T14:20:54.260Z,99162.25
2022-12-11T14:26:03.590Z,99168.16
2022-12-11T14:31:06.576Z,99156.84
2022-12-11T14:36:09.182Z,99157.66
2022-12-11T14:41:19.817Z,99164.59
2022-12-11T14:46:35.359Z,99164.53
2022-12-11T14:51:40.142Z,99173.88
2022-12-11T14:56:45.504Z,99179.66
2022-12-11T15:02:01.119Z,99178.78
2022-12-11T15:07:21.413Z,99173.56
2022-12-11T15:12:24.082Z,99174.28
2022-12-11T15:17:32.055Z,99179.41
2022-12-11T15:22:36.073Z,99177.69
2022-12-11T15:27:39.777Z,99179.28
2022-12-11T15:32:41.756Z,99181.31
2022-12-11T15:37:53.305Z,99175.31
2022-12-11T15:42:56.106Z,99168.63
2022-12-11T15:47:59.502Z,99166.66
2022-12-11T15:53:01.213Z,99175.13
2022-12-11T15:58:06.129Z,99175.22
2022-12-11T16:03:12.082Z,99177.78
2022-12-11T16:08:15.905Z,99179.69
2022-12-11T16:13:17.713Z,99181.31
2022-12-11T16:18:22.954Z,99182.69
2022-12-11T16:23:24.682Z,99187.06
2022-12-11T16:28:26.643Z,99183.41
2022-12-11T16:33:28.493Z,99183.50
2022-12-11T16:38:30.188Z,99185.22
2022-12-11T16:43:32.927Z,99191.41
2022-12-11T16:48:34.821Z,99183.84
2022-12-11T16:53:36.744Z,99177.69
2022-12-11T16:58:38.583Z,99176.69
2022-12-11T17:03:42.191Z,99184.34
2022-12-11T17:08:44.777Z,99185.97
2022-12-11T17:13:46.558Z,99187.97
2022-12-11T17:18:48.663Z,99183.66
2022-12-11T17:23:51.045Z,99192.22
2022-12-11T17:28:52.755Z,99185.28
2022-12-11T17:33:54.739Z,99177.06
2022-12-11T17:38:56.593Z,99184.00
2022-12-11T17:43:58.358Z,99185.63
2022-12-11T17:49:02.677Z,99179.50
2022-12-11T17:54:04.725Z,99191.69
2022-12-11T17:59:06.687Z,99186.19
2022-12-11T18:04:08.416Z,99193.06
2022-12-11T18:09:11.528Z,99184.81
2022-12-11T18:14:17.135Z,99186.69
2022-12-11T18:19:20.293Z,99184.72
2022-12-11T18:24:22.744Z,99184.09
2022-12-11T18:29:24.980Z,99190.69
2022-12-11T18:34:26.747Z,99190.44
2022-12-11T18:39:28.497Z,99189.66
2022-12-11T18:44:30.483Z,99188.06
2022-12-11T18:49:32.827Z,99189.91
2022-12-11T18:54:35.775Z,99188.28
2022-12-11T18:59:37.755Z,99183.13
2022-12-11T19:04:39.707Z,99175.66
2022-12-11T19:09:46.227Z,99175.47
2022-12-11T19:14:49.697Z,99169.44
2022-12-11T19:19:51.390Z,99175.59
2022-12-11T19:24:53.044Z,99172.84
2022-12-11T19:29:55.137Z,99175.22
2022-12-11T19:34:57.357Z,99174.47
2022-12-11T19:39:59.224Z,99177.97
2022-12-11T19:45:02.830Z,99178.47
2022-12-11T19:50:05.344Z,99178.41
2022-12-11T19:55:07.842Z,99176.66
2022-12-11T20:00:10.105Z,99166.38
2022-12-11T20:05:14.189Z,99175.84
2022-12-11T20:10:16.328Z,99168.94
2022-12-11T20:15:20.711Z,99173.97
2022-12-11T20:20:24.508Z,99168.84
2022-12-11T20:25:27.327Z,99169.00
2022-12-11T20:30:28.981Z,99167.13
2022-12-11T20:35:30.973Z,99176.72
2022-12-11T20:40:33.296Z,99173.97
2022-12-11T20:45:34.981Z,99174.94
2022-12-11T20:50:36.867Z,99167.03
2022-12-11T20:55:40.746Z,99170.50
2022-12-11T21:00:57.998Z,99175.00
2022-12-11T21:05:59.716Z,99173.34
2022-12-11T21:11:01.553Z,99164.56
2022-12-11T21:16:07.745Z,99166.97
2022-12-11T21:21:09.898Z,99166.44
2022-12-11T21:26:11.849Z,99158.56
2022-12-11T21:31:16.624Z,99162.16
2022-12-11T21:36:18.590Z,99154.44
2022-12-11T21:41:23.658Z,99162.09
2022-12-11T21:46:27.406Z,99150.97
2022-12-11T21:51:36.492Z,99149.38
2022-12-11T21:56:40.613Z,99140.16
2022-12-11T22:01:45.923Z,99144.16
2022-12-11T22:06:47.714Z,99138.88
2022-12-11T22:11:55.061Z,99143.41
2022-12-11T22:16:59.944Z,99148.53
2022-12-11T22:22:01.680Z,99148.53
2022-12-11T22:27:03.944Z,99145.97
2022-12-11T22:32:06.469Z,99142.63
2022-12-11T22:37:08.239Z,99134.97
2022-12-11T22:42:09.943Z,99134.16
2022-12-11T22:47:11.989Z,99134.88
2022-12-11T22:52:13.930Z,99134.88
2022-12-11T22:57:15.817Z,99139.97
2022-12-11T23:02:17.731Z,99150.09
2022-12-11T23:07:19.485Z,99146.69
2022-12-11T23:12:21.140Z,99140.16
2022-12-11T23:17:22.859Z,99146.06
2022-12-11T23:22:24.595Z,99150.16
2022-12-11T23:27:26.621Z,99158.00
2022-12-11T23:32:32.640Z,99158.00
2022-12-11T23:37:34.423Z,99160.56
2022-12-11T23:42:36.093Z,99151.91
2022-12-11T23:47:37.754Z,99162.16
2022-12-11T23:52:39.350Z,99151.72
2022-12-11T23:57:40.996Z,99153.78
